Time;durP1;ratioP1;P1;durP2;ratioP2;P2;SDS_P1;SDS_P2;PMS_P1;PMS_P2;Temp;Humidity;BMP_temperature;BMP_pressure;BME280_temperature;BME280_humidity;BME280_pressure;Samples;Min_cycle;Max_cycle;Signal;HPM_P1;HPM_P2
2021/08/15 00:00:14;;;;;;;6.75;5.00;;;;;;;27.89;33.04;100299.13;5072300;28;20068;-71
2021/08/15 00:02:43;;;;;;;6.20;5.57;;;;;;;27.92;32.69;100305.97;5071636;28;20029;-72
2021/08/15 00:05:11;;;;;;;5.75;5.13;;;;;;;27.92;32.66;100300.25;5071625;28;20025;-70
2021/08/15 00:07:37;;;;;;;5.65;5.15;;;;;;;28.03;31.78;100308.31;5070959;28;20045;-70
2021/08/15 00:10:04;;;;;;;7.20;5.47;;;;;;;28.11;31.18;100309.56;5071550;28;20037;-69
2021/08/15 00:12:32;;;;;;;5.60;5.07;;;;;;;28.04;31.25;100302.13;5071705;28;20056;-70
2021/08/15 00:15:00;;;;;;;6.30;5.72;;;;;;;28.00;32.04;100303.56;5071480;28;20032;-70
2021/08/15 00:17:29;;;;;;;10.23;6.47;;;;;;;27.85;31.68;100272.78;5071971;28;20037;-70
2021/08/15 00:19:54;;;;;;;8.32;6.78;;;;;;;27.89;32.05;100292.63;5054699;28;20029;-70
2021/08/15 00:22:23;;;;;;;8.82;7.93;;;;;;;28.00;31.79;100292.91;5071639;28;20036;-71
2021/08/15 00:24:51;;;;;;;10.20;8.70;;;;;;;27.91;31.84;100290.06;5071221;28;20040;-71
2021/08/15 00:27:19;;;;;;;10.45;9.55;;;;;;;28.01;31.66;100291.63;5054191;28;20071;-71
2021/08/15 00:29:47;;;;;;;10.18;9.27;;;;;;;27.99;32.32;100297.03;5056042;28;20064;-71
2021/08/15 00:32:16;;;;;;;10.57;9.55;;;;;;;27.79;31.96;100271.84;5071427;28;20040;-70
2021/08/15 00:34:41;;;;;;;10.35;8.77;;;;;;;27.97;32.68;100287.38;5054983;28;20017;-70
2021/08/15 00:37:07;;;;;;;11.23;10.05;;;;;;;28.00;32.25;100295.78;5071365;28;20033;-69
2021/08/15 00:39:36;;;;;;;10.40;9.40;;;;;;;27.98;32.84;100294.69;5054336;28;20075;-71
2021/08/15 00:42:02;;;;;;;11.00;10.10;;;;;;;27.93;32.54;100287.53;5054593;28;20037;-71
2021/08/15 00:47:17;;;;;;;10.07;9.18;;;;;;;27.92;32.41;100285.97;5055970;28;20135;-71
2021/08/15 00:49:42;;;;;;;10.95;9.82;;;;;;;27.91;33.02;100284.34;5054622;28;20098;-71
2021/08/15 00:52:10;;;;;;;10.93;9.77;;;;;;;27.91;32.87;100284.34;5070796;28;20464;-69
2021/08/15 00:54:37;;;;;;;13.50;10.32;;;;;;;27.92;33.13;100285.97;5054597;28;20033;-71
2021/08/15 00:57:03;;;;;;;12.52;10.40;;;;;;;28.01;32.66;100287.97;5054031;28;20038;-72
2021/08/15 00:59:36;;;;;;;10.18;9.18;;;;;;;27.94;32.82;100289.13;5053932;28;20029;-70
2021/08/15 01:02:07;;;;;;;10.98;9.90;;;;;;;27.89;32.91;100284.03;5070913;28;20056;-70
2021/08/15 01:04:36;;;;;;;10.30;8.95;;;;;;;27.89;33.31;100281.19;5053877;28;20029;-71
2021/08/15 01:07:03;;;;;;;9.80;8.93;;;;;;;27.80;33.12;100275.47;5053778;28;20089;-71
2021/08/15 01:09:29;;;;;;;10.73;9.27;;;;;;;27.88;32.83;100283.25;5053607;28;20024;-71
2021/08/15 01:11:54;;;;;;;12.05;9.48;;;;;;;27.85;32.98;100281.34;5053690;28;20029;-70
2021/08/15 01:14:20;;;;;;;9.52;8.60;;;;;;;27.85;32.79;100280.56;5070287;28;20029;-70
2021/08/15 01:16:52;;;;;;;9.02;8.23;;;;;;;27.85;32.66;100281.34;5053840;28;20041;-71
2021/08/15 01:19:29;;;;;;;9.38;8.50;;;;;;;27.81;32.54;100272.16;5070008;28;20119;-71
2021/08/15 01:21:58;;;;;;;9.70;8.80;;;;;;;27.78;32.74;100278.03;5055021;28;20029;-72
2021/08/15 01:24:27;;;;;;;9.57;8.18;;;;;;;27.72;33.07;100279.97;5070173;28;20112;-72
2021/08/15 01:26:54;;;;;;;8.48;7.78;;;;;;;27.80;32.35;100266.91;5053084;28;20105;-70
2021/08/15 01:29:22;;;;;;;8.75;7.95;;;;;;;27.76;32.75;100267.09;5069937;28;20021;-70
2021/08/15 01:31:50;;;;;;;8.90;8.05;;;;;;;27.74;32.72;100268.84;5069963;28;20036;-71
2021/08/15 01:34:16;;;;;;;8.30;7.50;;;;;;;27.64;32.58;100265.94;5053287;28;20035;-71
2021/08/15 01:36:47;;;;;;;8.18;7.38;;;;;;;27.69;32.67;100268.16;5070174;28;20040;-70
2021/08/15 01:39:18;;;;;;;8.65;7.85;;;;;;;27.62;32.74;100267.72;5069832;28;20025;-70
2021/08/15 01:41:47;;;;;;;9.88;7.95;;;;;;;27.60;32.83;100265.34;5070044;28;20029;-70
2021/08/15 01:44:13;;;;;;;8.77;7.97;;;;;;;27.56;32.53;100261.84;5069707;28;20078;-72
2021/08/15 01:46:41;;;;;;;8.45;7.65;;;;;;;27.58;32.53;100262.16;5069932;28;20106;-70
2021/08/15 01:49:10;;;;;;;8.95;8.15;;;;;;;27.48;32.67;100234.88;5053443;28;20025;-70
2021/08/15 01:51:38;;;;;;;10.13;7.53;;;;;;;27.63;32.44;100264.38;5053210;28;20504;-71
2021/08/15 01:54:06;;;;;;;9.80;7.28;;;;;;;27.58;32.38;100261.38;5069516;28;20052;-72
2021/08/15 01:56:37;;;;;;;7.85;7.15;;;;;;;27.60;32.47;100259.63;5069500;28;20041;-71
2021/08/15 01:59:05;;;;;;;8.45;7.70;;;;;;;27.60;32.17;100250.25;5069725;28;20538;-70
2021/08/15 02:01:34;;;;;;;7.38;6.78;;;;;;;27.58;32.36;100258.50;5069365;28;20047;-69
2021/08/15 02:04:02;;;;;;;8.10;7.32;;;;;;;27.50;32.07;100248.69;5069314;28;20032;-71
2021/08/15 02:06:28;;;;;;;8.00;6.97;;;;;;;27.52;31.78;100264.06;5070153;28;20475;-71
2021/08/15 02:08:56;;;;;;;7.88;7.03;;;;;;;27.50;31.78;100260.13;5069183;28;20029;-72
2021/08/15 02:11:25;;;;;;;8.18;7.38;;;;;;;27.40;31.78;100256.47;5053646;28;20383;-70
2021/08/15 02:13:51;;;;;;;8.02;7.22;;;;;;;27.43;31.38;100258.34;5069164;28;20035;-71
2021/08/15 02:16:16;;;;;;;9.05;7.97;;;;;;;27.38;31.69;100261.88;5069217;28;20029;-71
2021/08/15 02:18:45;;;;;;;11.85;10.35;;;;;;;27.36;31.56;100250.13;5069486;28;20024;-71
2021/08/15 02:21:14;;;;;;;10.50;9.55;;;;;;;27.34;31.73;100262.03;5052490;28;20033;-70
2021/08/15 02:23:42;;;;;;;11.55;10.35;;;;;;;27.34;31.46;100259.19;5069878;28;20371;-71
2021/08/15 02:26:10;;;;;;;18.95;15.05;;;;;;;27.37;31.06;100261.06;5052432;28;20464;-70
2021/08/15 02:28:39;;;;;;;25.20;22.60;;;;;;;27.32;31.25;100252.34;5052312;28;20033;-71
2021/08/15 02:31:07;;;;;;;14.75;13.25;;;;;;;27.31;31.19;100240.13;5068701;28;20032;-71
2021/08/15 02:33:38;;;;;;;12.32;11.10;;;;;;;27.39;30.70;100260.59;5052294;28;20028;-70
2021/08/15 02:36:06;;;;;;;11.23;10.02;;;;;;;27.41;30.89;100263.78;5052535;28;20032;-70
2021/08/15 02:38:38;;;;;;;8.95;8.15;;;;;;;27.39;30.89;100260.59;5052754;28;20514;-70
2021/08/15 02:41:09;;;;;;;11.98;9.57;;;;;;;27.23;31.47;100258.88;5052214;28;20028;-70
2021/08/15 02:43:35;;;;;;;10.02;9.02;;;;;;;27.20;31.60;100262.66;5068875;28;20035;-70
2021/08/15 02:46:05;;;;;;;12.35;9.80;;;;;;;27.13;31.67;100260.13;5069366;28;20127;-71
2021/08/15 02:48:34;;;;;;;9.55;8.65;;;;;;;27.17;31.78;100259.97;5069289;28;20468;-71
2021/08/15 02:51:00;;;;;;;10.38;9.43;;;;;;;27.01;32.49;100269.63;5069032;28;20155;-70
2021/08/15 02:53:28;;;;;;;9.50;8.48;;;;;;;26.98;32.61;100271.34;5068777;28;20087;-71
2021/08/15 02:55:54;;;;;;;10.75;9.55;;;;;;;26.96;32.61;100268.19;5069116;28;20082;-71
2021/08/15 02:58:22;;;;;;;10.15;9.20;;;;;;;26.95;32.79;100272.28;5069336;28;20442;-71
2021/08/15 03:00:48;;;;;;;10.10;9.10;;;;;;;26.93;32.92;100274.03;5068719;28;20037;-71
2021/08/15 03:03:16;;;;;;;10.90;9.32;;;;;;;26.84;33.44;100272.75;5068754;28;20039;-70
2021/08/15 03:05:44;;;;;;;11.38;10.20;;;;;;;26.81;32.94;100279.41;5052284;28;20087;-70
2021/08/15 03:08:13;;;;;;;9.73;8.82;;;;;;;26.77;33.28;100277.97;5068607;28;20174;-72
2021/08/15 03:10:44;;;;;;;10.82;8.55;;;;;;;26.76;33.48;100288.59;5052472;28;20106;-72
2021/08/15 03:13:10;;;;;;;9.45;8.43;;;;;;;26.69;33.88;100282.41;5068611;28;20056;-72
2021/08/15 03:15:37;;;;;;;9.18;8.32;;;;;;;26.72;33.37;100281.44;5068596;28;20126;-71
2021/08/15 03:18:05;;;;;;;9.80;8.82;;;;;;;26.70;33.97;100284.00;5068650;28;20024;-71
2021/08/15 03:20:33;;;;;;;8.85;7.90;;;;;;;26.69;34.15;100288.13;5052155;28;20535;-71
2021/08/15 03:23:02;;;;;;;10.63;8.48;;;;;;;26.66;34.12;100281.28;5068524;28;20029;-72
2021/08/15 03:25:34;;;;;;;8.52;7.13;;;;;;;26.70;34.40;100290.50;5051776;28;20029;-71
2021/08/15 03:27:59;;;;;;;9.30;7.90;;;;;;;26.67;34.63;100297.13;5068185;28;20053;-70
2021/08/15 03:30:27;;;;;;;10.32;7.07;;;;;;;26.68;35.04;100280.81;5068430;28;20298;-72
2021/08/15 03:32:58;;;;;;;9.43;6.47;;;;;;;26.69;35.00;100286.06;5052999;28;20376;-70
2021/08/15 03:35:27;;;;;;;8.00;7.30;;;;;;;26.71;35.25;100291.28;5068459;28;20025;-73
2021/08/15 03:37:58;;;;;;;9.55;7.47;;;;;;;26.77;34.93;100287.34;5068391;28;20035;-71
2021/08/15 03:40:26;;;;;;;7.80;7.10;;;;;;;26.80;34.64;100288.47;5068401;28;20472;-71
2021/08/15 03:42:52;;;;;;;8.07;7.25;;;;;;;26.75;34.45;100287.03;5070962;28;20028;-70
2021/08/15 03:45:23;;;;;;;8.90;6.97;;;;;;;26.60;34.90;100288.88;5055671;28;20032;-71
2021/08/15 03:47:51;;;;;;;7.25;6.55;;;;;;;26.52;35.36;100296.91;5072490;28;20368;-71
2021/08/15 03:50:23;;;;;;;7.15;6.45;;;;;;;26.38;35.85;100286.09;5071644;28;20037;-73
2021/08/15 03:52:51;;;;;;;6.95;6.25;;;;;;;26.51;35.32;100289.63;5072406;28;20032;-71
2021/08/15 03:55:19;;;;;;;7.53;6.82;;;;;;;26.31;36.45;100292.88;5071849;28;20036;-72
2021/08/15 03:57:47;;;;;;;8.93;7.75;;;;;;;26.34;37.13;100293.97;5055178;28;20062;-72
2021/08/15 04:00:19;;;;;;;12.35;10.45;;;;;;;26.27;37.01;100297.91;5072345;28;20029;-72
2021/08/15 04:02:50;;;;;;;13.57;10.05;;;;;;;26.35;36.09;100298.41;5055620;28;20032;-70
2021/08/15 04:05:18;;;;;;;12.45;11.20;;;;;;;26.24;36.67;100298.06;5055028;28;20028;-70
2021/08/15 04:07:47;;;;;;;14.63;13.02;;;;;;;26.24;36.75;100303.75;5071535;28;20025;-70
2021/08/15 04:10:12;;;;;;;14.95;13.30;;;;;;;26.13;37.23;100299.28;5054944;28;20040;-71
2021/08/15 04:12:38;;;;;;;13.18;11.82;;;;;;;26.05;36.82;100295.13;5055315;28;20033;-72
2021/08/15 04:15:07;;;;;;;12.90;8.75;;;;;;;26.06;36.61;100299.56;5055072;28;20527;-70
2021/08/15 04:17:36;;;;;;;11.63;7.05;;;;;;;25.96;37.05;100294.28;5071475;28;20028;-72
2021/08/15 04:20:05;;;;;;;9.57;7.40;;;;;;;25.87;37.74;100297.84;5071685;28;20028;-71
2021/08/15 04:22:35;;;;;;;7.20;6.35;;;;;;;25.86;37.78;100297.06;5054631;28;20506;-71
2021/08/15 04:25:06;;;;;;;7.80;6.93;;;;;;;25.86;37.52;100287.72;5071568;28;20098;-72
2021/08/15 04:27:38;;;;;;;7.90;5.90;;;;;;;25.90;37.65;100293.28;5071182;28;20137;-71
2021/08/15 04:30:08;;;;;;;7.65;6.25;;;;;;;25.99;37.57;100293.31;5071464;28;20495;-70
2021/08/15 04:32:39;;;;;;;6.72;6.13;;;;;;;25.91;37.72;100289.19;5071060;28;20033;-70
2021/08/15 04:35:11;;;;;;;6.40;5.78;;;;;;;25.90;37.51;100290.44;5054884;28;20029;-72
2021/08/15 04:37:39;;;;;;;8.75;6.47;;;;;;;25.93;38.18;100290.28;5071579;28;20032;-71
2021/08/15 04:40:07;;;;;;;6.97;6.30;;;;;;;26.11;37.35;100284.69;5071272;28;20025;-71
2021/08/15 04:42:36;;;;;;;7.35;5.80;;;;;;;26.47;36.45;100297.53;5071821;28;20087;-70
2021/08/15 04:45:04;;;;;;;8.52;6.35;;;;;;;26.76;35.40;100293.53;5070915;28;20029;-72
2021/08/15 04:47:32;;;;;;;7.63;5.88;;;;;;;26.91;35.63;100294.50;5071359;28;20033;-72
2021/08/15 04:49:58;;;;;;;11.88;6.05;;;;;;;27.04;35.64;100285.78;5070841;28;20057;-71
2021/08/15 04:52:27;;;;;;;7.60;6.88;;;;;;;27.26;35.37;100291.38;5071299;28;20039;-72
2021/08/15 04:54:55;;;;;;;6.78;6.20;;;;;;;27.47;34.98;100295.34;5070740;28;20029;-73
2021/08/15 04:57:23;;;;;;;7.90;6.28;;;;;;;27.68;33.86;100294.38;5071223;28;20033;-72
2021/08/15 04:59:54;;;;;;;8.07;6.25;;;;;;;27.85;34.31;100297.72;5070619;28;20029;-71
2021/08/15 05:02:22;;;;;;;6.72;5.80;;;;;;;28.27;33.88;100296.97;5070606;28;20028;-71
2021/08/15 05:04:50;;;;;;;7.80;6.22;;;;;;;28.61;33.25;100302.25;5070795;28;20021;-72
2021/08/15 05:07:22;;;;;;;7.28;6.57;;;;;;;28.90;33.05;100312.25;5070469;28;20033;-71
2021/08/15 05:09:50;;;;;;;8.05;6.93;;;;;;;29.19;32.54;100308.72;5070624;28;20107;-70
2021/08/15 05:12:19;;;;;;;9.23;7.10;;;;;;;29.53;32.49;100313.13;5054218;28;20460;-69
2021/08/15 05:14:44;;;;;;;11.05;7.07;;;;;;;29.79;32.39;100319.09;5070358;28;20033;-69
2021/08/15 05:17:13;;;;;;;8.27;7.45;;;;;;;30.08;31.75;100318.28;5070301;28;20044;-69
2021/08/15 05:19:44;;;;;;;8.80;6.60;;;;;;;30.37;31.45;100316.72;5070158;28;20425;-70
2021/08/15 05:22:12;;;;;;;9.70;7.75;;;;;;;30.44;31.13;100322.06;5070452;28;20471;-69
2021/08/15 05:24:44;;;;;;;14.07;7.85;;;;;;;30.69;31.48;100332.09;5070124;28;20029;-70
2021/08/15 05:27:09;;;;;;;10.73;7.70;;;;;;;30.93;30.76;100340.56;5070218;28;20115;-72
2021/08/15 05:29:39;;;;;;;9.00;7.80;;;;;;;31.12;30.86;100330.41;5070082;28;20414;-69
2021/08/15 05:32:09;;;;;;;10.02;8.60;;;;;;;31.42;30.27;100336.00;5055364;28;20029;-69
2021/08/15 05:34:39;;;;;;;8.45;7.65;;;;;;;31.51;30.50;100319.41;5053786;28;20025;-68
2021/08/15 05:37:09;;;;;;;11.55;9.43;;;;;;;31.59;30.45;100324.69;5053420;28;20118;-70
2021/08/15 05:39:37;;;;;;;9.93;7.43;;;;;;;31.81;29.93;100330.75;5053342;28;20392;-70
2021/08/15 05:42:06;;;;;;;9.98;8.88;;;;;;;31.93;29.68;100325.88;5069661;28;20068;-67
2021/08/15 05:44:32;;;;;;;8.88;7.57;;;;;;;32.36;29.76;100337.56;5070046;28;20035;-71
2021/08/15 05:47:03;;;;;;;9.60;7.85;;;;;;;32.54;29.20;100325.66;5070142;28;20475;-70
2021/08/15 05:49:35;;;;;;;9.30;8.43;;;;;;;32.44;29.39;100330.00;5053286;28;20024;-68
2021/08/15 05:52:03;;;;;;;9.15;8.25;;;;;;;32.43;29.16;100334.97;5053381;28;20052;-70
2021/08/15 05:54:32;;;;;;;8.45;7.13;;;;;;;32.44;29.21;100338.66;5069733;28;20025;-71
2021/08/15 05:57:03;;;;;;;8.23;7.43;;;;;;;32.50;29.06;100339.50;5069405;28;20031;-69
2021/08/15 05:59:35;;;;;;;8.80;7.57;;;;;;;32.88;29.01;100343.94;5069440;28;20171;-69
2021/08/15 06:02:03;;;;;;;12.68;7.90;;;;;;;32.84;28.84;100344.19;5069983;28;20045;-69
2021/08/15 06:04:32;;;;;;;11.32;8.18;;;;;;;32.92;29.32;100343.72;5069160;28;20032;-71
2021/08/15 06:07:03;;;;;;;8.95;8.02;;;;;;;33.14;29.03;100346.75;5069491;28;20376;-70
2021/08/15 06:09:28;;;;;;;8.73;7.88;;;;;;;33.62;28.56;100343.03;5069154;28;20032;-71
2021/08/15 06:11:56;;;;;;;8.20;7.38;;;;;;;33.95;28.58;100344.47;5069190;28;20029;-69
2021/08/15 06:14:22;;;;;;;8.68;7.30;;;;;;;34.12;28.85;100348.16;5052839;28;20091;-70
2021/08/15 06:16:48;;;;;;;8.35;7.47;;;;;;;34.14;28.81;100345.50;5069134;28;20541;-69
2021/08/15 06:19:13;;;;;;;9.35;7.60;;;;;;;34.46;28.23;100348.97;5069393;28;20035;-69
2021/08/15 06:21:45;;;;;;;8.60;7.82;;;;;;;34.75;27.90;100362.09;5054262;28;20486;-70
2021/08/15 06:24:13;;;;;;;11.65;7.97;;;;;;;34.72;27.18;100360.22;5052578;28;20494;-70
2021/08/15 06:26:38;;;;;;;8.30;7.50;;;;;;;34.71;27.50;100355.78;5068835;28;20040;-69
2021/08/15 06:29:04;;;;;;;9.00;8.13;;;;;;;34.38;28.12;100345.78;5068770;28;20040;-70
2021/08/15 06:31:30;;;;;;;10.13;8.07;;;;;;;34.39;28.36;100347.38;5068942;28;20036;-69
2021/08/15 06:33:58;;;;;;;11.00;7.65;;;;;;;34.67;28.25;100356.03;5052180;28;20127;-69
2021/08/15 06:36:29;;;;;;;9.25;7.38;;;;;;;34.96;27.71;100353.16;5069451;28;20037;-71
2021/08/15 06:38:55;;;;;;;8.73;7.97;;;;;;;34.49;28.70;100358.69;5068885;28;20464;-69
2021/08/15 06:41:23;;;;;;;8.18;7.38;;;;;;;34.78;27.91;100361.00;5068801;28;20025;-70
2021/08/15 06:43:55;;;;;;;8.52;7.72;;;;;;;34.42;28.77;100359.97;5068821;28;20025;-68
2021/08/15 06:46:26;;;;;;;8.57;7.50;;;;;;;34.20;28.88;100357.88;5069634;28;20075;-68
2021/08/15 06:48:51;;;;;;;8.85;8.05;;;;;;;33.99;28.84;100357.31;5068943;28;20110;-69
2021/08/15 06:51:20;;;;;;;8.80;7.22;;;;;;;34.59;28.22;100346.34;5068717;28;20033;-71
2021/08/15 06:53:48;;;;;;;10.05;7.35;;;;;;;35.27;27.51;100355.69;5052101;28;20029;-70
2021/08/15 06:56:16;;;;;;;8.43;7.72;;;;;;;34.90;28.03;100356.81;5051923;28;20036;-70
2021/08/15 06:58:42;;;;;;;8.85;7.93;;;;;;;34.86;27.92;100361.28;5052242;28;20083;-71
2021/08/15 07:01:07;;;;;;;7.93;7.13;;;;;;;34.62;27.47;100356.03;5068636;28;20475;-71
2021/08/15 07:03:38;;;;;;;10.43;8.52;;;;;;;34.69;27.92;100358.41;5068604;28;20083;-70
2021/08/15 07:06:10;;;;;;;10.30;8.32;;;;;;;35.01;27.90;100355.22;5069030;28;20452;-69
2021/08/15 07:08:35;;;;;;;8.82;7.55;;;;;;;35.68;26.55;100355.75;5068822;28;20032;-71
2021/08/15 07:11:07;;;;;;;10.00;8.02;;;;;;;35.70;26.84;100352.34;5068578;28;20025;-70
2021/08/15 07:13:33;;;;;;;8.48;7.68;;;;;;;35.64;26.37;100355.28;5052946;28;20537;-72
2021/08/15 07:16:02;;;;;;;9.18;8.30;;;;;;;36.35;25.47;100362.47;5068509;28;20033;-70
2021/08/15 07:18:31;;;;;;;10.63;8.02;;;;;;;36.58;24.63;100360.16;5056811;28;20391;-70
2021/08/15 07:21:00;;;;;;;7.95;7.13;;;;;;;36.38;25.08;100353.47;5072684;28;20609;-70
2021/08/15 07:23:29;;;;;;;9.52;6.90;;;;;;;37.26;23.39;100358.16;5056576;28;20118;-71
2021/08/15 07:25:57;;;;;;;9.00;8.07;;;;;;;36.35;24.37;100363.25;5072326;28;20113;-71
2021/08/15 07:28:26;;;;;;;9.18;8.27;;;;;;;37.08;23.58;100358.91;5071767;28;20040;-71
2021/08/15 07:30:53;;;;;;;10.02;7.85;;;;;;;36.98;23.25;100353.47;5072639;28;20119;-69
2021/08/15 07:33:25;;;;;;;9.30;8.35;;;;;;;36.65;24.14;100353.81;5056656;28;20025;-72
2021/08/15 07:35:55;;;;;;;8.70;7.63;;;;;;;36.62;24.75;100349.84;5072030;28;20035;-70
2021/08/15 07:38:23;;;;;;;7.90;7.20;;;;;;;35.95;24.32;100344.56;5072158;28;20087;-72
2021/08/15 07:40:52;;;;;;;8.80;7.57;;;;;;;36.67;22.80;100356.94;5072014;28;20099;-71
2021/08/15 07:43:20;;;;;;;8.27;7.40;;;;;;;36.57;23.01;100349.91;5071918;28;20028;-72
2021/08/15 07:45:53;;;;;;;8.30;7.22;;;;;;;37.16;21.48;100357.75;5056585;28;20029;-72
2021/08/15 07:48:23;;;;;;;7.25;6.63;;;;;;;37.43;21.48;100355.84;5071910;28;20056;-73
2021/08/15 07:50:52;;;;;;;8.32;7.60;;;;;;;36.63;21.81;100351.41;5071828;28;20052;-71
2021/08/15 07:53:26;;;;;;;9.00;8.30;;;;;;;37.30;19.21;100349.16;5072055;28;20407;-70
2021/08/15 07:55:53;;;;;;;7.60;6.95;;;;;;;37.26;20.57;100354.47;5072620;28;20049;-71
2021/08/15 07:58:27;;;;;;;7.70;7.03;;;;;;;37.70;19.72;100347.31;5055259;28;20467;-70
2021/08/15 08:01:01;;;;;;;7.10;6.50;;;;;;;37.23;19.55;100344.72;5072072;28;20390;-70
2021/08/15 08:03:32;;;;;;;9.15;7.55;;;;;;;37.91;19.45;100357.06;5056521;28;20036;-71
2021/08/15 08:06:03;;;;;;;6.72;6.13;;;;;;;37.80;19.22;100354.31;5071893;28;20036;-70
2021/08/15 08:08:36;;;;;;;8.13;7.43;;;;;;;37.16;19.67;100351.16;5071712;28;20460;-71
2021/08/15 08:11:07;;;;;;;8.18;7.35;;;;;;;37.53;20.16;100349.69;5054855;28;20063;-71
2021/08/15 08:13:33;;;;;;;7.38;6.65;;;;;;;37.63;19.58;100348.75;5071506;28;20036;-72
2021/08/15 08:15:59;;;;;;;8.93;5.88;;;;;;;37.91;19.38;100350.47;5072138;28;20025;-72
2021/08/15 08:18:29;;;;;;;8.65;6.82;;;;;;;37.75;18.75;100355.94;5071603;28;20036;-70
2021/08/15 08:20:58;;;;;;;9.05;6.55;;;;;;;37.43;18.55;100352.94;5071628;28;20082;-72
2021/08/15 08:23:28;;;;;;;8.75;6.55;;;;;;;37.14;19.22;100342.22;5071304;28;20032;-73
2021/08/15 08:25:59;;;;;;;7.82;6.03;;;;;;;36.95;18.95;100351.66;5071542;28;20139;-73
2021/08/15 08:28:28;;;;;;;8.70;6.15;;;;;;;37.60;18.06;100343.22;5052863;28;20045;-72
2021/08/15 08:30:56;;;;;;;9.82;6.53;;;;;;;38.62;17.89;100346.97;5055021;28;20120;-74
2021/08/15 08:33:24;;;;;;;7.72;7.03;;;;;;;39.00;16.94;100350.50;5054719;28;20033;-71
2021/08/15 08:35:50;;;;;;;7.93;7.13;;;;;;;39.28;16.25;100352.09;5071696;28;20029;-71
2021/08/15 08:38:18;;;;;;;9.32;8.30;;;;;;;38.75;16.22;100341.19;5070974;28;20037;-72
2021/08/15 08:40:51;;;;;;;8.93;7.15;;;;;;;39.02;17.20;100329.56;5070918;28;20119;-71
2021/08/15 08:43:22;;;;;;;7.72;6.97;;;;;;;39.53;15.63;100338.84;5055729;28;20050;-71
2021/08/15 08:45:53;;;;;;;9.52;8.55;;;;;;;39.45;15.68;100335.03;5070840;28;20113;-71
2021/08/15 08:48:21;;;;;;;10.70;9.60;;;;;;;39.81;15.01;100334.53;5054359;28;20433;-73
2021/08/15 08:50:51;;;;;;;9.82;9.02;;;;;;;39.58;15.46;100330.53;5055429;28;20029;-72
2021/08/15 08:53:20;;;;;;;8.82;7.97;;;;;;;39.05;15.13;100325.56;5070897;28;20036;-74
2021/08/15 08:55:49;;;;;;;8.73;7.80;;;;;;;39.21;15.00;100326.59;5071088;28;20194;-74
2021/08/15 08:58:19;;;;;;;9.68;8.68;;;;;;;39.25;14.72;100324.09;5070228;28;20032;-74
2021/08/15 09:00:50;;;;;;;9.15;8.23;;;;;;;38.54;16.01;100325.69;5053845;28;20021;-72
2021/08/15 09:03:18;;;;;;;9.65;8.65;;;;;;;38.57;15.87;100323.78;5070715;28;20031;-70
2021/08/15 09:05:54;;;;;;;7.82;7.18;;;;;;;38.70;15.80;100318.00;5055060;28;20079;-73
2021/08/15 09:08:38;;;;;;;8.80;7.45;;;;;;;38.97;15.15;100310.88;5070266;28;20025;-71
2021/08/15 09:11:20;;;;;;;7.25;6.47;;;;;;;39.34;15.04;100317.81;5053676;28;20025;-71
2021/08/15 09:14:24;;;;;;;9.23;6.68;;;;;;;39.67;14.59;100306.81;5054269;28;20048;-74
2021/08/15 09:17:00;;;;;;;8.07;7.10;;;;;;;39.27;14.94;100306.88;5043622;28;20513;-71
2021/08/15 09:19:44;;;;;;;7.50;6.60;;;;;;;39.27;14.79;100303.97;5070702;28;20044;-73
2021/08/15 09:22:19;;;;;;;8.50;7.07;;;;;;;39.46;14.80;100306.72;5055151;28;20369;-73
2021/08/15 09:24:57;;;;;;;7.53;6.20;;;;;;;40.60;14.41;100298.44;5054432;28;20071;-72
2021/08/15 09:27:33;;;;;;;7.20;6.60;;;;;;;41.24;14.32;100302.75;5053144;28;20114;-74
2021/08/15 09:30:29;;;;;;;7.38;6.68;;;;;;;41.73;13.02;100301.78;5069889;28;20033;-73
2021/08/15 09:33:01;;;;;;;6.88;6.15;;;;;;;40.29;14.04;100297.38;5052350;28;20033;-72
2021/08/15 09:35:36;;;;;;;5.65;5.07;;;;;;;39.68;13.91;100276.31;5069832;28;20083;-71
2021/08/15 09:38:10;;;;;;;7.88;5.53;;;;;;;39.62;14.78;100291.03;5070085;28;20476;-75
2021/08/15 09:40:47;;;;;;;10.13;5.50;;;;;;;39.91;14.10;100273.69;5069744;28;20205;-73
2021/08/15 09:43:27;;;;;;;5.70;5.20;;;;;;;40.42;13.45;100281.91;5069735;28;20029;-69
2021/08/15 09:46:00;;;;;;;6.30;5.25;;;;;;;40.83;13.16;100290.59;5069727;28;20029;-71
2021/08/15 09:48:39;;;;;;;6.43;4.90;;;;;;;40.36;13.32;100287.91;5069445;28;20025;-71
2021/08/15 09:51:24;;;;;;;7.95;5.20;;;;;;;40.63;13.31;100279.00;5052884;28;20033;-71
2021/08/15 09:53:52;;;;;;;6.07;5.07;;;;;;;41.12;13.30;100261.41;5053682;28;20029;-71
2021/08/15 09:56:34;;;;;;;5.57;5.07;;;;;;;41.90;12.64;100278.66;5069465;28;20029;-71
2021/08/15 09:59:10;;;;;;;;;;;;;;;42.56;12.56;100277.75;5053704;28;20037;-72
2021/08/15 10:01:48;;;;;;;5.50;4.82;;;;;;;42.95;12.18;100274.75;5052965;28;19975;-72
2021/08/15 10:04:21;;;;;;;5.45;4.93;;;;;;;43.47;11.99;100266.38;5069250;28;20036;-72
2021/08/15 10:06:52;;;;;;;6.90;5.32;;;;;;;42.43;13.75;100262.53;5069350;28;20128;-72
2021/08/15 10:09:23;;;;;;;6.40;5.75;;;;;;;41.89;13.85;100262.50;5053227;28;20063;-71
2021/08/15 10:11:52;;;;;;;8.80;6.15;;;;;;;41.20;17.68;100261.47;5069391;28;20365;-71
2021/08/15 10:14:21;;;;;;;7.50;6.80;;;;;;;41.24;18.47;100256.81;5069063;28;20033;-72
2021/08/15 10:16:58;;;;;;;6.78;6.18;;;;;;;40.85;18.61;100249.97;5052727;28;20039;-72
2021/08/15 10:20:02;;;;;;;7.97;7.18;;;;;;;40.53;20.08;100252.50;5069673;28;20025;-71
2021/08/15 10:22:34;;;;;;;7.07;6.35;;;;;;;40.58;20.70;100242.81;5031796;28;20043;-72
2021/08/15 10:25:05;;;;;;;7.93;6.22;;;;;;;39.83;21.55;100244.47;5069081;28;20036;-70
2021/08/15 10:27:40;;;;;;;6.82;6.22;;;;;;;40.12;19.90;100227.09;5036081;28;20068;-71
2021/08/15 10:30:32;;;;;;;6.22;5.63;;;;;;;40.24;19.12;100237.88;5068892;28;20057;-70
2021/08/15 10:33:03;;;;;;;12.05;5.97;;;;;;;40.04;19.38;100235.72;5046584;28;20037;-72
2021/08/15 10:35:33;;;;;;;5.50;4.97;;;;;;;39.88;18.30;100223.16;5069451;28;20538;-70
2021/08/15 10:38:07;;;;;;;6.22;4.88;;;;;;;39.88;18.83;100223.16;5051937;28;20033;-71
2021/08/15 10:40:39;;;;;;;7.78;4.22;;;;;;;39.62;17.12;100215.31;5069799;28;20021;-70
2021/08/15 10:43:07;;;;;;;;;;;;;;;38.67;17.65;100217.34;5069334;28;20032;-71
2021/08/15 10:45:35;;;;;;;4.82;4.43;;;;;;;38.97;17.35;100226.53;5052168;28;19909;-72
2021/08/15 10:48:10;;;;;;;4.45;4.05;;;;;;;39.26;16.84;100198.44;5069633;28;20029;-72
2021/08/15 10:50:51;;;;;;;4.80;4.20;;;;;;;39.63;16.84;100213.19;5054123;28;20053;-72
2021/08/15 10:53:29;;;;;;;4.22;3.88;;;;;;;39.85;16.75;100218.47;5051796;28;20177;-71
2021/08/15 10:56:03;;;;;;;7.75;4.10;;;;;;;39.88;17.10;100216.56;5069333;28;20040;-70
2021/08/15 10:58:40;;;;;;;4.60;3.65;;;;;;;40.12;16.86;100212.53;5068732;28;20025;-71
2021/08/15 11:01:10;;;;;;;3.85;3.45;;;;;;;39.94;17.43;100203.41;5069569;28;20028;-72
2021/08/15 11:03:47;;;;;;;5.20;3.80;;;;;;;39.78;17.11;100202.47;5068696;28;20036;-71
2021/08/15 11:06:31;;;;;;;4.82;4.43;;;;;;;39.06;17.80;100207.06;5069581;28;20029;-70
2021/08/15 11:09:05;;;;;;;4.10;3.80;;;;;;;38.88;17.63;100203.72;5068961;28;20472;-71
2021/08/15 11:11:35;;;;;;;4.40;4.00;;;;;;;39.34;17.30;100204.31;5052665;28;20033;-71
2021/08/15 11:14:23;;;;;;;4.90;4.45;;;;;;;39.68;16.53;100194.81;5051862;28;20540;-70
2021/08/15 11:17:11;;;;;;;4.55;4.13;;;;;;;40.41;16.11;100198.75;5068704;28;20033;-71
2021/08/15 11:19:38;;;;;;;4.20;3.80;;;;;;;39.80;15.96;100181.53;5052219;28;20209;-71
2021/08/15 11:22:15;;;;;;;4.78;4.38;;;;;;;39.99;16.08;100187.91;5052208;28;20036;-70
2021/08/15 11:24:44;;;;;;;4.78;4.05;;;;;;;39.41;16.24;100191.97;5068578;28;20033;-70
2021/08/15 11:27:14;;;;;;;5.13;4.38;;;;;;;38.91;16.74;100173.53;5068219;28;20048;-71
2021/08/15 11:29:49;;;;;;;4.78;4.28;;;;;;;39.04;16.56;100175.63;5068463;28;20024;-72
2021/08/15 11:32:24;;;;;;;4.20;3.90;;;;;;;39.16;16.61;100171.13;5049785;28;20052;-71
2021/08/15 11:34:58;;;;;;;4.57;4.10;;;;;;;39.22;16.72;100168.13;5051826;28;20491;-71
2021/08/15 11:37:35;;;;;;;7.88;4.10;;;;;;;39.25;16.59;100166.97;5053616;28;20029;-70
2021/08/15 11:40:20;;;;;;;4.50;3.97;;;;;;;39.14;16.93;100167.97;5068407;28;20082;-72